Terminal Aerodrome Forecast
Issued by NWS

Home | Current Version | Previous Version | Text Only | Print | Product List | Glossary On
Versions: 1 2 3 4 5 6 7 8 9 10 11 12 13 14 15 16 17 18 19 20 21 22
342
FTUS43 KAPX 301724
TAFMBL
TAF
KMBL 301724Z 3018/0118 07009G16KT P6SM VCSH BKN020 OVC030
     FM010100 07009KT P6SM VCSH SCT030 OVC035
     FM010300 08008KT P6SM VCSH SCT030 OVC040
     FM010900 07007KT P6SM -SHRA OVC025
     FM011200 07007KT P6SM -SHRA OVC018=

USA.gov is the U.S. government's official web portal to all federal, state and local government web resources and services.